sensor_id;sensor_type;location;lat;lon;timestamp;pressure;altitude;pressure_sealevel;temperature;humidity
65190;BME280;51777;53.570;9.984;2023-12-20T00:01:02;100681.47;;;5.80;100.00
65190;BME280;51777;53.570;9.984;2023-12-20T00:03:27;100682.75;;;5.75;100.00
65190;BME280;51777;53.570;9.984;2023-12-20T00:05:53;100684.13;;;5.68;100.00
65190;BME280;51777;53.570;9.984;2023-12-20T00:08:18;100674.00;;;5.66;100.00
65190;BME280;51777;53.570;9.984;2023-12-20T00:10:44;100671.91;;;5.60;100.00
65190;BME280;51777;53.570;9.984;2023-12-20T00:13:10;100674.09;;;5.65;100.00
65190;BME280;51777;53.570;9.984;2023-12-20T00:15:37;100666.53;;;5.63;100.00
65190;BME280;51777;53.570;9.984;2023-12-20T00:18:03;100673.75;;;5.58;100.00
65190;BME280;51777;53.570;9.984;2023-12-20T00:20:29;100672.09;;;5.57;100.00
65190;BME280;51777;53.570;9.984;2023-12-20T00:22:56;100664.41;;;5.57;100.00
65190;BME280;51777;53.570;9.984;2023-12-20T00:25:23;100664.31;;;5.58;100.00
65190;BME280;51777;53.570;9.984;2023-12-20T00:27:48;100659.91;;;5.60;100.00
65190;BME280;51777;53.570;9.984;2023-12-20T00:30:14;100667.72;;;5.59;100.00
65190;BME280;51777;53.570;9.984;2023-12-20T00:32:39;100663.28;;;5.61;100.00
65190;BME280;51777;53.570;9.984;2023-12-20T00:35:14;100653.00;;;5.61;100.00
65190;BME280;51777;53.570;9.984;2023-12-20T00:37:39;100653.59;;;5.65;100.00
65190;BME280;51777;53.570;9.984;2023-12-20T00:40:05;100646.47;;;5.57;100.00
65190;BME280;51777;53.570;9.984;2023-12-20T00:42:32;100650.66;;;5.58;100.00
65190;BME280;51777;53.570;9.984;2023-12-20T00:44:58;100641.13;;;5.60;100.00
65190;BME280;51777;53.570;9.984;2023-12-20T00:47:24;100636.13;;;5.58;100.00
65190;BME280;51777;53.570;9.984;2023-12-20T00:49:49;100638.31;;;5.63;100.00
65190;BME280;51777;53.570;9.984;2023-12-20T00:52:15;100633.06;;;5.65;100.00
65190;BME280;51777;53.570;9.984;2023-12-20T00:54:42;100633.44;;;5.60;100.00
65190;BME280;51777;53.570;9.984;2023-12-20T00:57:08;100630.63;;;5.63;100.00
65190;BME280;51777;53.570;9.984;2023-12-20T00:59:33;100638.31;;;5.63;100.00
65190;BME280;51777;53.570;9.984;2023-12-20T01:01:59;100630.88;;;5.60;100.00
65190;BME280;51777;53.570;9.984;2023-12-20T01:04:24;100626.88;;;5.56;100.00
65190;BME280;51777;53.570;9.984;2023-12-20T01:06:49;100611.84;;;5.51;100.00
65190;BME280;51777;53.570;9.984;2023-12-20T01:09:15;100612.91;;;5.49;100.00
65190;BME280;51777;53.570;9.984;2023-12-20T01:11:40;100618.72;;;5.40;100.00
65190;BME280;51777;53.570;9.984;2023-12-20T01:14:05;100621.28;;;5.40;100.00
65190;BME280;51777;53.570;9.984;2023-12-20T01:16:31;100613.94;;;5.35;100.00
65190;BME280;51777;53.570;9.984;2023-12-20T01:18:56;100618.34;;;5.33;100.00
65190;BME280;51777;53.570;9.984;2023-12-20T01:21:22;100619.19;;;5.34;100.00
65190;BME280;51777;53.570;9.984;2023-12-20T01:23:47;100613.13;;;5.35;100.00
65190;BME280;51777;53.570;9.984;2023-12-20T01:26:14;100614.28;;;5.30;100.00
65190;BME280;51777;53.570;9.984;2023-12-20T01:28:40;100611.72;;;5.30;100.00
65190;BME280;51777;53.570;9.984;2023-12-20T01:31:05;100608.44;;;5.28;100.00
65190;BME280;51777;53.570;9.984;2023-12-20T01:33:31;100605.53;;;5.22;100.00
65190;BME280;51777;53.570;9.984;2023-12-20T01:35:56;100609.94;;;5.20;100.00
65190;BME280;51777;53.570;9.984;2023-12-20T01:38:22;100601.69;;;5.16;100.00
65190;BME280;51777;53.570;9.984;2023-12-20T01:40:47;100612.50;;;5.20;100.00
65190;BME280;51777;53.570;9.984;2023-12-20T01:43:13;100610.19;;;5.17;100.00
65190;BME280;51777;53.570;9.984;2023-12-20T01:45:38;100603.31;;;5.17;100.00
65190;BME280;51777;53.570;9.984;2023-12-20T01:48:04;100597.72;;;5.12;100.00
65190;BME280;51777;53.570;9.984;2023-12-20T01:50:31;100599.34;;;5.13;100.00
65190;BME280;51777;53.570;9.984;2023-12-20T01:52:58;100594.00;;;5.16;100.00
65190;BME280;51777;53.570;9.984;2023-12-20T01:55:25;100602.50;;;5.17;100.00
65190;BME280;51777;53.570;9.984;2023-12-20T01:57:51;100605.97;;;5.16;100.00
65190;BME280;51777;53.570;9.984;2023-12-20T02:00:17;100596.53;;;5.16;100.00
65190;BME280;51777;53.570;9.984;2023-12-20T02:02:44;100594.00;;;5.16;100.00
65190;BME280;51777;53.570;9.984;2023-12-20T02:05:11;100590.50;;;5.17;100.00
65190;BME280;51777;53.570;9.984;2023-12-20T02:07:36;100576.41;;;5.12;100.00
65190;BME280;51777;53.570;9.984;2023-12-20T02:10:02;100580.91;;;5.08;100.00
65190;BME280;51777;53.570;9.984;2023-12-20T02:12:29;100573.47;;;5.05;100.00
65190;BME280;51777;53.570;9.984;2023-12-20T02:14:54;100567.53;;;5.05;100.00
65190;BME280;51777;53.570;9.984;2023-12-20T02:17:20;100567.28;;;5.08;100.00
65190;BME280;51777;53.570;9.984;2023-12-20T02:19:45;100558.31;;;5.02;100.00
65190;BME280;51777;53.570;9.984;2023-12-20T02:22:11;100555.66;;;5.04;100.00
65190;BME280;51777;53.570;9.984;2023-12-20T02:24:38;100556.22;;;5.07;100.00
65190;BME280;51777;53.570;9.984;2023-12-20T02:27:05;100556.22;;;5.07;100.00
65190;BME280;51777;53.570;9.984;2023-12-20T02:29:33;100563.59;;;5.12;100.00
65190;BME280;51777;53.570;9.984;2023-12-20T02:31:58;100565.34;;;5.11;100.00
65190;BME280;51777;53.570;9.984;2023-12-20T02:34:24;100558.47;;;5.23;100.00
65190;BME280;51777;53.570;9.984;2023-12-20T02:36:49;100563.59;;;5.23;100.00
65190;BME280;51777;53.570;9.984;2023-12-20T02:39:14;100556.72;;;5.23;100.00
65190;BME280;51777;53.570;9.984;2023-12-20T02:41:40;100549.50;;;5.28;100.00
65190;BME280;51777;53.570;9.984;2023-12-20T02:44:05;100554.63;;;5.28;100.00
65190;BME280;51777;53.570;9.984;2023-12-20T02:46:31;100547.97;;;5.26;100.00
65190;BME280;51777;53.570;9.984;2023-12-20T02:48:56;100550.31;;;5.29;100.00
65190;BME280;51777;53.570;9.984;2023-12-20T02:51:22;100538.78;;;5.35;100.00
65190;BME280;51777;53.570;9.984;2023-12-20T02:53:47;100532.84;;;5.34;100.00
65190;BME280;51777;53.570;9.984;2023-12-20T02:56:12;100533.88;;;5.31;100.00
65190;BME280;51777;53.570;9.984;2023-12-20T02:58:39;100531.19;;;5.33;100.00
65190;BME280;51777;53.570;9.984;2023-12-20T03:01:19;100538.78;;;5.35;100.00
65190;BME280;51777;53.570;9.984;2023-12-20T03:03:45;100544.50;;;5.38;100.00
65190;BME280;51777;53.570;9.984;2023-12-20T03:06:11;100529.22;;;5.37;100.00
65190;BME280;51777;53.570;9.984;2023-12-20T03:08:36;100534.22;;;5.38;100.00
65190;BME280;51777;53.570;9.984;2023-12-20T03:11:05;100524.34;;;5.34;100.00
65190;BME280;51777;53.570;9.984;2023-12-20T03:13:30;100520.13;;;5.32;100.00
65190;BME280;51777;53.570;9.984;2023-12-20T03:15:56;100527.94;;;5.31;100.00
65190;BME280;51777;53.570;9.984;2023-12-20T03:18:21;100524.09;;;5.25;100.00
65190;BME280;51777;53.570;9.984;2023-12-20T03:20:46;100516.41;;;5.25;100.00
65190;BME280;51777;53.570;9.984;2023-12-20T03:23:15;100516.06;;;5.30;100.00
65190;BME280;51777;53.570;9.984;2023-12-20T03:25:40;100502.19;;;5.32;100.00
65190;BME280;51777;53.570;9.984;2023-12-20T03:28:05;100515.47;;;5.26;100.00
65190;BME280;51777;53.570;9.984;2023-12-20T03:30:31;100512.34;;;5.34;100.00
65190;BME280;51777;53.570;9.984;2023-12-20T03:32:56;100508.84;;;5.35;100.00
65190;BME280;51777;53.570;9.984;2023-12-20T03:35:22;100504.16;;;5.40;100.00
65190;BME280;51777;53.570;9.984;2023-12-20T03:37:47;100506.63;;;5.30;100.00
65190;BME280;51777;53.570;9.984;2023-12-20T03:40:12;100506.84;;;5.39;100.00
65190;BME280;51777;53.570;9.984;2023-12-20T03:42:38;100505.91;;;5.40;100.00
65190;BME280;51777;53.570;9.984;2023-12-20T03:45:03;100507.53;;;5.41;100.00
65190;BME280;51777;53.570;9.984;2023-12-20T03:47:29;100495.22;;;5.35;100.00
65190;BME280;51777;53.570;9.984;2023-12-20T03:49:54;100492.41;;;5.38;100.00
65190;BME280;51777;53.570;9.984;2023-12-20T03:52:19;100486.72;;;5.34;100.00
65190;BME280;51777;53.570;9.984;2023-12-20T03:54:45;100481.91;;;5.41;100.00
65190;BME280;51777;53.570;9.984;2023-12-20T03:57:10;100478.66;;;5.39;100.00
65190;BME280;51777;53.570;9.984;2023-12-20T03:59:36;100483.66;;;5.40;100.00
65190;BME280;51777;53.570;9.984;2023-12-20T04:02:02;100475.41;;;5.37;100.00
65190;BME280;51777;53.570;9.984;2023-12-20T04:04:28;100477.03;;;5.38;100.00
65190;BME280;51777;53.570;9.984;2023-12-20T04:06:53;100476.78;;;5.41;100.00
65190;BME280;51777;53.570;9.984;2023-12-20T04:09:18;100480.03;;;5.43;100.00
65190;BME280;51777;53.570;9.984;2023-12-20T04:11:44;100475.72;;;5.43;100.00
65190;BME280;51777;53.570;9.984;2023-12-20T04:14:09;100471.41;;;5.44;100.00
65190;BME280;51777;53.570;9.984;2023-12-20T04:16:35;100463.38;;;5.48;100.00
65190;BME280;51777;53.570;9.984;2023-12-20T04:19:00;100461.16;;;5.44;100.00
65190;BME280;51777;53.570;9.984;2023-12-20T04:21:26;100449.25;;;5.43;100.00
65190;BME280;51777;53.570;9.984;2023-12-20T04:23:51;100447.38;;;5.45;100.00
65190;BME280;51777;53.570;9.984;2023-12-20T04:26:17;100444.94;;;5.43;100.00
65190;BME280;51777;53.570;9.984;2023-12-20T04:28:42;100439.69;;;5.45;100.00
65190;BME280;51777;53.570;9.984;2023-12-20T04:31:08;100449.50;;;5.40;100.00
65190;BME280;51777;53.570;9.984;2023-12-20T04:33:35;100440.88;;;5.41;100.00
65190;BME280;51777;53.570;9.984;2023-12-20T04:36:01;100439.50;;;5.37;100.00
65190;BME280;51777;53.570;9.984;2023-12-20T04:38:26;100431.81;;;5.37;100.00
65190;BME280;51777;53.570;9.984;2023-12-20T04:40:51;100430.19;;;5.36;100.00
65190;BME280;51777;53.570;9.984;2023-12-20T04:43:17;100421.19;;;5.41;100.00
65190;BME280;51777;53.570;9.984;2023-12-20T04:45:43;100420.13;;;5.44;100.00
65190;BME280;51777;53.570;9.984;2023-12-20T04:48:08;100410.13;;;5.41;100.00
65190;BME280;51777;53.570;9.984;2023-12-20T04:50:33;100412.00;;;5.39;100.00
65190;BME280;51777;53.570;9.984;2023-12-20T04:52:59;100406.63;;;5.42;100.00
65190;BME280;51777;53.570;9.984;2023-12-20T04:55:24;100417.81;;;5.41;100.00
65190;BME280;51777;53.570;9.984;2023-12-20T04:57:50;100405.47;;;5.46;100.00
65190;BME280;51777;53.570;9.984;2023-12-20T05:00:15;100410.81;;;5.43;100.00
65190;BME280;51777;53.570;9.984;2023-12-20T05:02:41;100407.09;;;5.47;100.00
65190;BME280;51777;53.570;9.984;2023-12-20T05:05:07;100399.16;;;5.50;100.00
65190;BME280;51777;53.570;9.984;2023-12-20T05:07:32;100410.47;;;5.47;100.00
65190;BME280;51777;53.570;9.984;2023-12-20T05:09:58;100400.53;;;5.54;100.00
65190;BME280;51777;53.570;9.984;2023-12-20T05:12:24;100396.34;;;5.53;100.00
65190;BME280;51777;53.570;9.984;2023-12-20T05:14:49;100390.25;;;5.54;100.00
65190;BME280;51777;53.570;9.984;2023-12-20T05:17:15;100400.28;;;5.57;100.00
65190;BME280;51777;53.570;9.984;2023-12-20T05:19:40;100403.19;;;5.64;100.00
65190;BME280;51777;53.570;9.984;2023-12-20T05:22:06;100392.38;;;5.60;100.00
65190;BME280;51777;53.570;9.984;2023-12-20T05:24:31;100396.56;;;5.61;100.00
65190;BME280;51777;53.570;9.984;2023-12-20T05:26:56;100396.31;;;5.64;100.00
65190;BME280;51777;53.570;9.984;2023-12-20T05:29:22;100390.34;;;5.64;100.00
65190;BME280;51777;53.570;9.984;2023-12-20T05:31:47;100393.59;;;5.66;100.00
65190;BME280;51777;53.570;9.984;2023-12-20T05:34:13;100381.59;;;5.66;100.00
65190;BME280;51777;53.570;9.984;2023-12-20T05:36:39;100390.22;;;5.65;100.00
65190;BME280;51777;53.570;9.984;2023-12-20T05:39:04;100386.38;;;5.71;100.00
65190;BME280;51777;53.570;9.984;2023-12-20T05:41:30;100383.22;;;5.67;100.00
65190;BME280;51777;53.570;9.984;2023-12-20T05:43:56;100401.06;;;5.69;100.00
65190;BME280;51777;53.570;9.984;2023-12-20T05:46:23;100393.88;;;5.63;100.00
65190;BME280;51777;53.570;9.984;2023-12-20T05:48:49;100392.78;;;5.65;100.00
65190;BME280;51777;53.570;9.984;2023-12-20T05:51:14;100394.41;;;5.66;100.00
65190;BME280;51777;53.570;9.984;2023-12-20T05:53:40;100386.03;;;5.64;100.00
65190;BME280;51777;53.570;9.984;2023-12-20T05:56:05;100385.09;;;5.65;100.00
65190;BME280;51777;53.570;9.984;2023-12-20T05:58:34;100377.41;;;5.65;100.00
65190;BME280;51777;53.570;9.984;2023-12-20T06:01:00;100371.47;;;5.65;100.00
65190;BME280;51777;53.570;9.984;2023-12-20T06:03:25;100385.22;;;5.64;100.00
65190;BME280;51777;53.570;9.984;2023-12-20T06:05:50;100378.22;;;5.66;100.00
65190;BME280;51777;53.570;9.984;2023-12-20T06:08:16;100391.38;;;5.72;100.00
65190;BME280;51777;53.570;9.984;2023-12-20T06:10:41;100376.34;;;5.68;100.00
65190;BME280;51777;53.570;9.984;2023-12-20T06:13:07;100368.78;;;5.66;100.00
65190;BME280;51777;53.570;9.984;2023-12-20T06:15:33;100360.00;;;5.69;100.00
65190;BME280;51777;53.570;9.984;2023-12-20T06:17:58;100349.19;;;5.65;100.00
65190;BME280;51777;53.570;9.984;2023-12-20T06:20:23;100341.50;;;5.65;100.00
65190;BME280;51777;53.570;9.984;2023-12-20T06:22:50;100345.56;;;5.68;100.00
65190;BME280;51777;53.570;9.984;2023-12-20T06:25:15;100344.19;;;5.64;100.00
65190;BME280;51777;53.570;9.984;2023-12-20T06:27:43;100342.19;;;5.67;100.00
65190;BME280;51777;53.570;9.984;2023-12-20T06:30:09;100344.41;;;5.72;100.00
65190;BME280;51777;53.570;9.984;2023-12-20T06:32:35;100343.22;;;5.76;100.00
65190;BME280;51777;53.570;9.984;2023-12-20T06:35:00;100348.34;;;5.76;100.00
65190;BME280;51777;53.570;9.984;2023-12-20T06:37:26;100347.25;;;5.78;100.00
65190;BME280;51777;53.570;9.984;2023-12-20T06:39:51;100356.59;;;5.79;100.00
65190;BME280;51777;53.570;9.984;2023-12-20T06:42:17;100335.13;;;5.80;100.00
65190;BME280;51777;53.570;9.984;2023-12-20T06:44:42;100340.25;;;5.80;100.00
65190;BME280;51777;53.570;9.984;2023-12-20T06:47:08;100335.13;;;5.80;100.00
65190;BME280;51777;53.570;9.984;2023-12-20T06:49:33;100326.75;;;5.78;100.00
65190;BME280;51777;53.570;9.984;2023-12-20T06:51:59;100334.44;;;5.78;100.00
65190;BME280;51777;53.570;9.984;2023-12-20T06:54:24;100323.91;;;5.81;100.00
65190;BME280;51777;53.570;9.984;2023-12-20T06:56:49;100328.38;;;5.79;100.00
65190;BME280;51777;53.570;9.984;2023-12-20T06:59:15;100325.13;;;5.77;100.00
65190;BME280;51777;53.570;9.984;2023-12-20T07:01:41;100309.72;;;5.77;100.00
65190;BME280;51777;53.570;9.984;2023-12-20T07:04:06;100308.09;;;5.76;100.00
65190;BME280;51777;53.570;9.984;2023-12-20T07:06:32;100301.91;;;5.79;100.00
65190;BME280;51777;53.570;9.984;2023-12-20T07:08:58;100298.66;;;5.77;100.00
65190;BME280;51777;53.570;9.984;2023-12-20T07:11:23;100305.66;;;5.75;100.00
65190;BME280;51777;53.570;9.984;2023-12-20T07:13:49;100302.41;;;5.73;100.00
65190;BME280;51777;53.570;9.984;2023-12-20T07:16:15;100313.50;;;5.73;100.00
65190;BME280;51777;53.570;9.984;2023-12-20T07:18:40;100311.59;;;5.75;100.00
65190;BME280;51777;53.570;9.984;2023-12-20T07:21:06;100306.47;;;5.75;100.00
65190;BME280;51777;53.570;9.984;2023-12-20T07:23:33;100319.31;;;5.75;100.00
65190;BME280;51777;53.570;9.984;2023-12-20T07:25:58;100312.16;;;5.79;100.00
65190;BME280;51777;53.570;9.984;2023-12-20T07:28:24;100309.47;;;5.80;100.00
65190;BME280;51777;53.570;9.984;2023-12-20T07:30:51;100311.41;;;5.88;100.00
65190;BME280;51777;53.570;9.984;2023-12-20T07:33:16;100304.78;;;5.85;100.00
65190;BME280;51777;53.570;9.984;2023-12-20T07:35:42;100297.56;;;5.91;100.00
65190;BME280;51777;53.570;9.984;2023-12-20T07:38:07;100305.25;;;5.91;100.00
65190;BME280;51777;53.570;9.984;2023-12-20T07:40:32;100299.84;;;5.94;100.00
65190;BME280;51777;53.570;9.984;2023-12-20T07:42:58;100299.72;;;5.95;100.00
65190;BME280;51777;53.570;9.984;2023-12-20T07:45:23;100296.81;;;6.00;100.00
65190;BME280;51777;53.570;9.984;2023-12-20T07:47:49;100294.91;;;6.02;100.00
65190;BME280;51777;53.570;9.984;2023-12-20T07:50:15;100287.22;;;6.02;100.00
65190;BME280;51777;53.570;9.984;2023-12-20T07:52:40;100285.03;;;5.97;100.00
65190;BME280;51777;53.570;9.984;2023-12-20T07:55:06;100286.41;;;6.01;100.00
65190;BME280;51777;53.570;9.984;2023-12-20T07:57:32;100292.47;;;6.00;100.00
65190;BME280;51777;53.570;9.984;2023-12-20T07:59:57;100279.25;;;6.05;100.00
65190;BME280;51777;53.570;9.984;2023-12-20T08:02:23;100282.63;;;6.05;100.00
65190;BME280;51777;53.570;9.984;2023-12-20T08:04:48;100278.50;;;6.14;100.00
65190;BME280;51777;53.570;9.984;2023-12-20T08:07:14;100286.88;;;6.16;100.00
65190;BME280;51777;53.570;9.984;2023-12-20T08:09:49;100276.34;;;6.19;100.00
65190;BME280;51777;53.570;9.984;2023-12-20T08:12:14;100277.06;;;6.21;100.00
65190;BME280;51777;53.570;9.984;2023-12-20T08:14:42;100271.66;;;6.24;100.00
65190;BME280;51777;53.570;9.984;2023-12-20T08:17:07;100265.44;;;6.27;100.00
65190;BME280;51777;53.570;9.984;2023-12-20T08:19:33;100264.63;;;6.26;100.00
65190;BME280;51777;53.570;9.984;2023-12-20T08:21:58;100254.69;;;6.33;100.00
65190;BME280;51777;53.570;9.984;2023-12-20T08:24:24;100246.03;;;6.43;100.00
65190;BME280;51777;53.570;9.984;2023-12-20T08:26:50;100245.63;;;6.38;100.00
65190;BME280;51777;53.570;9.984;2023-12-20T08:29:15;100250.75;;;6.38;100.00
65190;BME280;51777;53.570;9.984;2023-12-20T08:31:41;100241.16;;;6.40;100.00
65190;BME280;51777;53.570;9.984;2023-12-20T08:34:06;100242.09;;;6.39;100.00
65190;BME280;51777;53.570;9.984;2023-12-20T08:36:32;100228.63;;;6.47;100.00
65190;BME280;51777;53.570;9.984;2023-12-20T08:39:00;100238.22;;;6.55;100.00
65190;BME280;51777;53.570;9.984;2023-12-20T08:41:35;100230.28;;;6.58;100.00
65190;BME280;51777;53.570;9.984;2023-12-20T08:44:00;100245.69;;;6.58;100.00
65190;BME280;51777;53.570;9.984;2023-12-20T08:46:26;100232.13;;;6.56;100.00
65190;BME280;51777;53.570;9.984;2023-12-20T08:48:55;100224.19;;;6.59;100.00
65190;BME280;51777;53.570;9.984;2023-12-20T08:51:20;100221.63;;;6.59;100.00
65190;BME280;51777;53.570;9.984;2023-12-20T08:53:48;100217.53;;;6.56;100.00
65190;BME280;51777;53.570;9.984;2023-12-20T08:56:14;100233.34;;;6.52;100.00
65190;BME280;51777;53.570;9.984;2023-12-20T08:58:40;100235.91;;;6.42;100.00
65190;BME280;51777;53.570;9.984;2023-12-20T09:01:05;100224.81;;;6.41;100.00
65190;BME280;51777;53.570;9.984;2023-12-20T09:03:31;100227.38;;;6.41;100.00
65190;BME280;51777;53.570;9.984;2023-12-20T09:05:57;100213.28;;;6.26;100.00
65190;BME280;51777;53.570;9.984;2023-12-20T09:08:22;100212.63;;;6.24;100.00
65190;BME280;51777;53.570;9.984;2023-12-20T09:10:48;100207.84;;;6.10;100.00
65190;BME280;51777;53.570;9.984;2023-12-20T09:13:13;100197.19;;;6.14;100.00
65190;BME280;51777;53.570;9.984;2023-12-20T09:15:40;100210.66;;;6.07;100.00
65190;BME280;51777;53.570;9.984;2023-12-20T09:18:05;100224.81;;;6.01;100.00
65190;BME280;51777;53.570;9.984;2023-12-20T09:20:34;100225.22;;;5.97;100.00
65190;BME280;51777;53.570;9.984;2023-12-20T09:23:00;100227.78;;;5.97;100.00
65190;BME280;51777;53.570;9.984;2023-12-20T09:25:29;100237.34;;;5.95;100.00
65190;BME280;51777;53.570;9.984;2023-12-20T09:27:55;100223.97;;;5.91;100.00
65190;BME280;51777;53.570;9.984;2023-12-20T09:30:21;100232.28;;;5.83;100.00
65190;BME280;51777;53.570;9.984;2023-12-20T09:32:46;100224.81;;;5.80;100.00
65190;BME280;51777;53.570;9.984;2023-12-20T09:35:18;100236.59;;;5.83;100.00
65190;BME280;51777;53.570;9.984;2023-12-20T09:37:43;100231.47;;;5.83;100.00
65190;BME280;51777;53.570;9.984;2023-12-20T09:40:12;100235.75;;;5.82;100.00
65190;BME280;51777;53.570;9.984;2023-12-20T09:43:15;100250.44;;;5.92;100.00
65190;BME280;51777;53.570;9.984;2023-12-20T09:45:47;100250.78;;;6.08;100.00
65190;BME280;51777;53.570;9.984;2023-12-20T09:48:13;100257.66;;;6.38;100.00
65190;BME280;51777;53.570;9.984;2023-12-20T09:50:43;100261.19;;;6.46;100.00
65190;BME280;51777;53.570;9.984;2023-12-20T09:53:10;100269.22;;;6.23;100.00
65190;BME280;51777;53.570;9.984;2023-12-20T09:55:37;100260.78;;;6.11;100.00
65190;BME280;51777;53.570;9.984;2023-12-20T09:58:06;100260.19;;;5.98;100.00
65190;BME280;51777;53.570;9.984;2023-12-20T10:00:36;100263.88;;;5.84;100.00
65190;BME280;51777;53.570;9.984;2023-12-20T10:03:01;100252.34;;;5.78;100.00
65190;BME280;51777;53.570;9.984;2023-12-20T10:05:31;100246.41;;;5.78;100.00
65190;BME280;51777;53.570;9.984;2023-12-20T10:07:58;100234.34;;;5.69;100.00
65190;BME280;51777;53.570;9.984;2023-12-20T10:10:24;100246.81;;;5.73;100.00
65190;BME280;51777;53.570;9.984;2023-12-20T10:15:35;100260.19;;;5.77;100.00
65190;BME280;51777;53.570;9.984;2023-12-20T10:18:01;100279.25;;;5.63;100.00
65190;BME280;51777;53.570;9.984;2023-12-20T10:20:29;100290.94;;;5.56;100.00
65190;BME280;51777;53.570;9.984;2023-12-20T10:22:58;100269.13;;;5.41;100.00
65190;BME280;51777;53.570;9.984;2023-12-20T10:25:24;100276.81;;;5.41;100.00
65190;BME280;51777;53.570;9.984;2023-12-20T10:28:15;100264.69;;;5.43;100.00
65190;BME280;51777;53.570;9.984;2023-12-20T10:30:55;100270.38;;;5.46;100.00
65190;BME280;51777;53.570;9.984;2023-12-20T10:33:27;100266.00;;;5.37;100.00
65190;BME280;51777;53.570;9.984;2023-12-20T10:35:59;100242.22;;;5.56;100.00
65190;BME280;51777;53.570;9.984;2023-12-20T10:38:24;100251.94;;;5.52;100.00
65190;BME280;51777;53.570;9.984;2023-12-20T10:40:55;100241.72;;;5.41;100.00
65190;BME280;51777;53.570;9.984;2023-12-20T10:43:24;100239.44;;;5.59;100.00
65190;BME280;51777;53.570;9.984;2023-12-20T10:45:57;100239.78;;;5.54;100.00
65190;BME280;51777;53.570;9.984;2023-12-20T10:48:27;100234.72;;;5.43;100.00
65190;BME280;51777;53.570;9.984;2023-12-20T10:50:55;100229.47;;;5.45;100.00
65190;BME280;51777;53.570;9.984;2023-12-20T10:53:21;100220.22;;;5.53;100.00
65190;BME280;51777;53.570;9.984;2023-12-20T10:55:48;100225.59;;;5.50;100.00
65190;BME280;51777;53.570;9.984;2023-12-20T10:58:16;100230.22;;;5.56;100.00
65190;BME280;51777;53.570;9.984;2023-12-20T11:00:45;100216.28;;;5.49;100.00
65190;BME280;51777;53.570;9.984;2023-12-20T11:03:11;100217.22;;;5.48;100.00
65190;BME280;51777;53.570;9.984;2023-12-20T11:05:50;100216.84;;;5.32;100.00
65190;BME280;51777;53.570;9.984;2023-12-20T11:08:33;100215.53;;;5.38;100.00
65190;BME280;51777;53.570;9.984;2023-12-20T11:11:07;100219.59;;;5.40;100.00
65190;BME280;51777;53.570;9.984;2023-12-20T11:13:40;100215.22;;;5.52;100.00
65190;BME280;51777;53.570;9.984;2023-12-20T11:16:07;100227.59;;;5.68;100.00
65190;BME280;51777;53.570;9.984;2023-12-20T11:18:33;100221.03;;;5.54;100.00
65190;BME280;51777;53.570;9.984;2023-12-20T11:21:04;100229.47;;;5.66;100.00
65190;BME280;51777;53.570;9.984;2023-12-20T11:23:30;100226.69;;;5.78;100.00
65190;BME280;51777;53.570;9.984;2023-12-20T11:25:59;100212.81;;;5.81;100.00
65190;BME280;51777;53.570;9.984;2023-12-20T11:28:25;100233.16;;;5.94;100.00
65190;BME280;51777;53.570;9.984;2023-12-20T11:30:56;100228.28;;;5.91;100.00
65190;BME280;51777;53.570;9.984;2023-12-20T11:33:25;100270.47;;;5.98;100.00
65190;BME280;51777;53.570;9.984;2023-12-20T11:35:56;100256.09;;;5.95;100.00
65190;BME280;51777;53.570;9.984;2023-12-20T11:38:21;100260.44;;;5.95;100.00
65190;BME280;51777;53.570;9.984;2023-12-20T11:40:50;100243.03;;;5.98;100.00
65190;BME280;51777;53.570;9.984;2023-12-20T11:43:36;100248.59;;;5.82;100.00
65190;BME280;51777;53.570;9.984;2023-12-20T11:46:06;100253.63;;;5.84;100.00
65190;BME280;51777;53.570;9.984;2023-12-20T11:48:33;100238.66;;;5.68;100.00
65190;BME280;51777;53.570;9.984;2023-12-20T11:50:59;100232.84;;;5.66;100.00
65190;BME280;51777;53.570;9.984;2023-12-20T11:53:25;100229.94;;;5.80;100.00
65190;BME280;51777;53.570;9.984;2023-12-20T11:55:50;100231.75;;;5.89;100.00
65190;BME280;51777;53.570;9.984;2023-12-20T11:58:16;100230.34;;;5.76;100.00
65190;BME280;51777;53.570;9.984;2023-12-20T12:00:44;100221.50;;;5.69;100.00
65190;BME280;51777;53.570;9.984;2023-12-20T12:03:10;100247.03;;;5.70;100.00
65190;BME280;51777;53.570;9.984;2023-12-20T12:05:35;100244.72;;;5.88;100.00
65190;BME280;51777;53.570;9.984;2023-12-20T12:08:02;100236.34;;;5.86;100.00
65190;BME280;51777;53.570;9.984;2023-12-20T12:10:28;100234.13;;;5.81;100.00
65190;BME280;51777;53.570;9.984;2023-12-20T12:12:54;100239.97;;;5.83;100.00
65190;BME280;51777;53.570;9.984;2023-12-20T12:15:20;100246.16;;;5.81;100.00
65190;BME280;51777;53.570;9.984;2023-12-20T12:18:02;100224.13;;;5.78;100.00
65190;BME280;51777;53.570;9.984;2023-12-20T12:20:30;100219.38;;;5.95;100.00
65190;BME280;51777;53.570;9.984;2023-12-20T12:23:02;100220.09;;;5.97;100.00
65190;BME280;51777;53.570;9.984;2023-12-20T12:25:29;100219.94;;;5.98;100.00
65190;BME280;51777;53.570;9.984;2023-12-20T12:27:56;100224.06;;;6.10;100.00
65190;BME280;51777;53.570;9.984;2023-12-20T12:30:24;100223.91;;;6.12;100.00
65190;BME280;51777;53.570;9.984;2023-12-20T12:32:50;100213.78;;;6.20;100.00
65190;BME280;51777;53.570;9.984;2023-12-20T12:35:17;100224.91;;;6.21;100.00
65190;BME280;51777;53.570;9.984;2023-12-20T12:37:43;100218.13;;;6.19;100.00
65190;BME280;51777;53.570;9.984;2023-12-20T12:40:16;100227.88;;;6.26;100.00
65190;BME280;51777;53.570;9.984;2023-12-20T12:42:48;100218.44;;;6.26;100.00
65190;BME280;51777;53.570;9.984;2023-12-20T12:45:14;100223.16;;;6.31;100.00
65190;BME280;51777;53.570;9.984;2023-12-20T12:47:40;100223.88;;;6.42;100.00
65190;BME280;51777;53.570;9.984;2023-12-20T12:50:06;100228.91;;;6.54;100.00